PWSweather.com
Personal Weather Stations
Station Observations
KWIATHEL1
Marinette County, Athelstane, WI 54104

Marinette CountyAthelstane, WI 54104

Lat: 45.4, Lon: -88.12

Elevation: 960

Station Type: OS WM-918

http://weather.athelstanewi.com

High Low Average
Temperature 38.1°F3.4°C 30.4°F-0.9°C 35.5°F1.9°C
Dew Point 30.9°F-0.6°C 20.8°F-6.2°C 26.3°F-3.2°C
Winds 13.4 mph 21.6 kmh Calm Calm 4.0 mph WSW6.4 kmh WSW
Wind Gusts 28.6 mph46.0 kmh -- 10.0 mph16.1 kmh
Humidity 78% 58% 69%
Pressure 30.07 in1018.3 mb 29.75 in1007.5 mb -
Precipitation 0.00 in0.0 mm - -
Hour Temp Dew Point Humidity Winds Wind Gusts Pressure Precip Precip Rate Daily Precip Total
12:03 AM 38.1°F3.4°C 30.9°F-0.6°C 75% 12.5 mph SW20.1 kmh SW 20.1 mph32.3 kmh 29.75 in1007.5 mb 0.00 in0.0 mm 0.00 in/hr0.0 mm/hr 0.00 in0.0 mm
12:18 AM 38.1°F3.4°C 30.2°F-1.0°C 73% 8.9 mph WNW14.3 kmh WNW 25.9 mph41.7 kmh 29.75 in1007.5 mb 0.00 in0.0 mm 0.00 in/hr0.0 mm/hr 0.00 in0.0 mm
12:34 AM 37.9°F3.3°C 28.7°F-1.8°C 69% 8.9 mph NW14.3 kmh NW 19.2 mph30.9 kmh 29.78 in1008.5 mb 0.00 in0.0 mm 0.00 in/hr0.0 mm/hr 0.00 in0.0 mm
12:48 AM 37.6°F3.1°C 28.4°F-2.0°C 69% 8.1 mph NW13.0 kmh NW 15.7 mph25.3 kmh 29.78 in1008.5 mb 0.00 in0.0 mm 0.00 in/hr0.0 mm/hr 0.00 in0.0 mm
01:03 AM 37.0°F2.8°C 27.8°F-2.3°C 69% 11.6 mph W18.7 kmh W 20.1 mph32.3 kmh 29.80 in1009.1 mb 0.00 in0.0 mm 0.00 in/hr0.0 mm/hr 0.00 in0.0 mm
01:18 AM 36.9°F2.7°C 28.0°F-2.2°C 70% 11.6 mph NW18.7 kmh NW 24.2 mph38.9 kmh 29.80 in1009.1 mb 0.00 in0.0 mm 0.00 in/hr0.0 mm/hr 0.00 in0.0 mm
01:34 AM 36.7°F2.6°C 28.2°F-2.1°C 71% 8.1 mph WSW13.0 kmh WSW 15.7 mph25.3 kmh 29.80 in1009.1 mb 0.00 in0.0 mm 0.00 in/hr0.0 mm/hr 0.00 in0.0 mm
01:48 AM 36.3°F2.4°C 28.5°F-1.9°C 73% Calm Calm 13.9 mph22.4 kmh 29.83 in1010.2 mb 0.00 in0.0 mm 0.00 in/hr0.0 mm/hr 0.00 in0.0 mm
02:04 AM 36.3°F2.4°C 28.8°F-1.8°C 74% 12.5 mph WSW20.1 kmh WSW 14.8 mph23.8 kmh 29.83 in1010.2 mb 0.00 in0.0 mm 0.00 in/hr0.0 mm/hr 0.00 in0.0 mm
02:18 AM 36.1°F2.3°C 28.7°F-1.8°C 74% 6.3 mph N10.1 kmh N 22.4 mph36.0 kmh 29.83 in1010.2 mb 0.00 in0.0 mm 0.00 in/hr0.0 mm/hr 0.00 in0.0 mm
02:34 AM 36.1°F2.3°C 29.0°F-1.7°C 75% 13.4 mph NNE21.6 kmh NNE 16.6 mph26.7 kmh 29.86 in1011.2 mb 0.00 in0.0 mm 0.00 in/hr0.0 mm/hr 0.00 in0.0 mm
02:48 AM 35.8°F2.1°C 29.0°F-1.7°C 76% 13.4 mph SW21.6 kmh SW 28.6 mph46.0 kmh 29.86 in1011.2 mb 0.08 in2.0 mm 0.34 in/hr8.6 mm/hr 0.08 in2.0 mm
03:04 AM 35.6°F2.0°C 28.8°F-1.8°C 76% 6.3 mph W10.1 kmh W 8.9 mph14.3 kmh 29.86 in1011.2 mb 0.08 in2.0 mm 0.00 in/hr0.0 mm/hr 0.08 in2.0 mm
03:18 AM 35.4°F1.9°C 28.6°F-1.9°C 76% 9.8 mph NW15.8 kmh NW 13.4 mph21.6 kmh 29.86 in1011.2 mb 0.08 in2.0 mm 0.00 in/hr0.0 mm/hr 0.08 in2.0 mm
03:33 AM 35.2°F1.8°C 28.8°F-1.8°C 77% Calm Calm 9.8 mph15.8 kmh 29.86 in1011.2 mb 0.08 in2.0 mm 0.00 in/hr0.0 mm/hr 0.08 in2.0 mm
03:48 AM 35.1°F1.7°C 28.6°F-1.9°C 77% Calm Calm -- 29.86 in1011.2 mb 0.08 in2.0 mm 0.00 in/hr0.0 mm/hr 0.08 in2.0 mm
04:03 AM 34.9°F1.6°C 28.4°F-2.0°C 77% 13.4 mph WNW21.6 kmh WNW 13.4 mph21.6 kmh 29.86 in1011.2 mb 0.00 in0.0 mm 0.00 in/hr0.0 mm/hr 0.08 in2.0 mm
04:18 AM 34.7°F1.5°C 28.6°F-1.9°C 78% Calm Calm 11.6 mph18.7 kmh 29.89 in1012.2 mb 0.00 in0.0 mm 0.00 in/hr0.0 mm/hr 0.08 in2.0 mm
04:34 AM 34.5°F1.4°C 28.1°F-2.2°C 77% Calm Calm -- 29.89 in1012.2 mb 0.00 in0.0 mm 0.00 in/hr0.0 mm/hr 0.08 in2.0 mm
04:48 AM 34.5°F1.4°C 28.1°F-2.2°C 77% Calm Calm 6.3 mph10.1 kmh 29.89 in1012.2 mb 0.00 in0.0 mm 0.00 in/hr0.0 mm/hr 0.08 in2.0 mm
05:04 AM 34.5°F1.4°C 28.1°F-2.2°C 77% Calm Calm 13.4 mph21.6 kmh 29.89 in1012.2 mb 0.00 in0.0 mm 0.00 in/hr0.0 mm/hr 0.08 in2.0 mm
05:18 AM 34.3°F1.3°C 27.9°F-2.3°C 77% Calm Calm 8.1 mph13.0 kmh 29.92 in1013.2 mb 0.00 in0.0 mm 0.00 in/hr0.0 mm/hr 0.08 in2.0 mm
05:34 AM 34.2°F1.2°C 27.7°F-2.4°C 77% 6.3 mph WSW10.1 kmh WSW 9.8 mph15.8 kmh 29.92 in1013.2 mb 0.00 in0.0 mm 0.00 in/hr0.0 mm/hr 0.08 in2.0 mm
05:48 AM 34.3°F1.3°C 27.9°F-2.3°C 77% Calm Calm 12.5 mph20.1 kmh 29.92 in1013.2 mb 0.00 in0.0 mm 0.00 in/hr0.0 mm/hr 0.08 in2.0 mm
06:03 AM 34.2°F1.2°C 27.7°F-2.4°C 77% 5.4 mph N8.7 kmh N 12.5 mph20.1 kmh 29.92 in1013.2 mb 0.00 in0.0 mm 0.00 in/hr0.0 mm/hr 0.08 in2.0 mm
06:18 AM 34.2°F1.2°C 27.4°F-2.6°C 76% 5.4 mph W8.7 kmh W 9.8 mph15.8 kmh 29.95 in1014.2 mb 0.00 in0.0 mm 0.00 in/hr0.0 mm/hr 0.08 in2.0 mm
06:33 AM 34.2°F1.2°C 27.1°F-2.7°C 75% 8.1 mph WSW13.0 kmh WSW 9.8 mph15.8 kmh 29.95 in1014.2 mb 0.00 in0.0 mm 0.00 in/hr0.0 mm/hr 0.08 in2.0 mm
06:48 AM 34.0°F1.1°C 26.9°F-2.8°C 75% Calm Calm 8.9 mph14.3 kmh 29.95 in1014.2 mb 0.00 in0.0 mm 0.00 in/hr0.0 mm/hr 0.08 in2.0 mm
07:04 AM 33.8°F1.0°C 26.4°F-3.1°C 74% Calm Calm 9.8 mph15.8 kmh 29.98 in1015.2 mb 0.00 in0.0 mm 0.00 in/hr0.0 mm/hr 0.08 in2.0 mm
07:18 AM 33.6°F0.9°C 25.9°F-3.4°C 73% Calm Calm 7.2 mph11.6 kmh 29.98 in1015.2 mb 0.00 in0.0 mm 0.00 in/hr0.0 mm/hr 0.08 in2.0 mm
07:32 AM 33.6°F0.9°C 25.9°F-3.4°C 73% Calm Calm 12.5 mph20.1 kmh 29.98 in1015.2 mb 0.00 in0.0 mm 0.00 in/hr0.0 mm/hr 0.08 in2.0 mm
07:48 AM 33.4°F0.8°C 25.4°F-3.7°C 72% 7.2 mph WNW11.6 kmh WNW 19.2 mph30.9 kmh 29.98 in1015.2 mb 0.00 in0.0 mm 0.00 in/hr0.0 mm/hr 0.08 in2.0 mm
08:04 AM 33.4°F0.8°C 25.4°F-3.7°C 72% Calm Calm 13.9 mph22.4 kmh 29.98 in1015.2 mb 0.00 in0.0 mm 0.00 in/hr0.0 mm/hr 0.08 in2.0 mm
08:18 AM 33.6°F0.9°C 25.9°F-3.4°C 73% 7.2 mph NW11.6 kmh NW 11.6 mph18.7 kmh 30.01 in1016.3 mb 0.00 in0.0 mm 0.00 in/hr0.0 mm/hr 0.08 in2.0 mm
08:34 AM 33.6°F0.9°C 25.9°F-3.4°C 73% 7.2 mph NW11.6 kmh NW 10.7 mph17.2 kmh 30.01 in1016.3 mb 0.00 in0.0 mm 0.00 in/hr0.0 mm/hr 0.08 in2.0 mm
08:48 AM 33.8°F1.0°C 26.1°F-3.3°C 73% 6.3 mph WSW10.1 kmh WSW 11.6 mph18.7 kmh 30.01 in1016.3 mb 0.00 in0.0 mm 0.00 in/hr0.0 mm/hr 0.08 in2.0 mm
09:04 AM 34.0°F1.1°C 25.9°F-3.4°C 72% Calm Calm 9.8 mph15.8 kmh 30.01 in1016.3 mb 0.00 in0.0 mm 0.00 in/hr0.0 mm/hr 0.08 in2.0 mm
09:18 AM 34.0°F1.1°C 25.9°F-3.4°C 72% 5.4 mph WNW8.7 kmh WNW 13.9 mph22.4 kmh 30.01 in1016.3 mb 0.00 in0.0 mm 0.00 in/hr0.0 mm/hr 0.08 in2.0 mm
09:34 AM 33.8°F1.0°C 25.1°F-3.8°C 70% Calm Calm 7.2 mph11.6 kmh 30.01 in1016.3 mb 0.00 in0.0 mm 0.00 in/hr0.0 mm/hr 0.08 in2.0 mm
09:48 AM 34.2°F1.2°C 25.4°F-3.7°C 70% Calm Calm 10.7 mph17.2 kmh 30.01 in1016.3 mb 0.00 in0.0 mm 0.00 in/hr0.0 mm/hr 0.08 in2.0 mm
10:04 AM 34.5°F1.4°C 25.8°F-3.4°C 70% Calm Calm 8.9 mph14.3 kmh 30.01 in1016.3 mb 0.00 in0.0 mm 0.00 in/hr0.0 mm/hr 0.08 in2.0 mm
10:18 AM 34.7°F1.5°C 25.2°F-3.8°C 68% Calm Calm 13.4 mph21.6 kmh 30.01 in1016.3 mb 0.00 in0.0 mm 0.00 in/hr0.0 mm/hr 0.08 in2.0 mm
10:34 AM 35.1°F1.7°C 24.9°F-3.9°C 66% 10.7 mph WSW17.2 kmh WSW 15.7 mph25.3 kmh 30.04 in1017.3 mb 0.00 in0.0 mm 0.00 in/hr0.0 mm/hr 0.08 in2.0 mm
10:48 AM 35.6°F2.0°C 25.0°F-3.9°C 65% Calm Calm -- 30.04 in1017.3 mb 0.00 in0.0 mm 0.00 in/hr0.0 mm/hr 0.08 in2.0 mm
11:04 AM 36.1°F2.3°C 25.5°F-3.6°C 65% Calm Calm 9.8 mph15.8 kmh 30.04 in1017.3 mb 0.00 in0.0 mm 0.00 in/hr0.0 mm/hr 0.08 in2.0 mm
11:18 AM 36.1°F2.3°C 25.5°F-3.6°C 65% Calm Calm 6.3 mph10.1 kmh 30.04 in1017.3 mb 0.00 in0.0 mm 0.00 in/hr0.0 mm/hr 0.08 in2.0 mm
11:34 AM 36.1°F2.3°C 24.8°F-4.0°C 63% 8.1 mph W13.0 kmh W 12.5 mph20.1 kmh 30.04 in1017.3 mb 0.00 in0.0 mm 0.00 in/hr0.0 mm/hr 0.08 in2.0 mm
11:48 AM 36.7°F2.6°C 25.3°F-3.7°C 63% Calm Calm 8.1 mph13.0 kmh 30.04 in1017.3 mb 0.00 in0.0 mm 0.00 in/hr0.0 mm/hr 0.08 in2.0 mm
12:04 PM 36.9°F2.7°C 25.5°F-3.6°C 63% Calm Calm -- 30.04 in1017.3 mb 0.00 in0.0 mm 0.00 in/hr0.0 mm/hr 0.08 in2.0 mm
12:18 PM 36.7°F2.6°C 24.1°F-4.4°C 60% Calm Calm 8.9 mph14.3 kmh 30.04 in1017.3 mb 0.00 in0.0 mm 0.00 in/hr0.0 mm/hr 0.08 in2.0 mm
12:34 PM 36.5°F2.5°C 24.3°F-4.3°C 61% 5.4 mph WSW8.7 kmh WSW 10.7 mph17.2 kmh 30.04 in1017.3 mb 0.00 in0.0 mm 0.00 in/hr0.0 mm/hr 0.08 in2.0 mm
12:48 PM 36.3°F2.4°C 24.2°F-4.3°C 61% 7.2 mph WNW11.6 kmh WNW 12.5 mph20.1 kmh 30.04 in1017.3 mb 0.00 in0.0 mm 0.00 in/hr0.0 mm/hr 0.08 in2.0 mm
01:03 PM 36.5°F2.5°C 24.3°F-4.3°C 61% 7.2 mph WSW11.6 kmh WSW 9.8 mph15.8 kmh 30.04 in1017.3 mb 0.00 in0.0 mm 0.00 in/hr0.0 mm/hr 0.08 in2.0 mm
01:18 PM 36.9°F2.7°C 25.1°F-3.8°C 62% Calm Calm 9.8 mph15.8 kmh 30.04 in1017.3 mb 0.00 in0.0 mm 0.00 in/hr0.0 mm/hr 0.08 in2.0 mm
01:34 PM 37.9°F3.3°C 26.1°F-3.3°C 62% Calm Calm -- 30.04 in1017.3 mb 0.04 in1.0 mm 0.15 in/hr3.8 mm/hr 0.12 in3.0 mm
01:48 PM 37.8°F3.2°C 25.1°F-3.8°C 60% Calm Calm 11.6 mph18.7 kmh 30.04 in1017.3 mb 0.04 in1.0 mm 0.00 in/hr0.0 mm/hr 0.12 in3.0 mm
02:04 PM 37.6°F3.1°C 24.6°F-4.1°C 59% 5.4 mph NW8.7 kmh NW 12.5 mph20.1 kmh 30.04 in1017.3 mb 0.04 in1.0 mm 0.00 in/hr0.0 mm/hr 0.12 in3.0 mm
02:18 PM 37.4°F3.0°C 24.4°F-4.2°C 59% 7.2 mph WSW11.6 kmh WSW 7.2 mph11.6 kmh 30.04 in1017.3 mb 0.04 in1.0 mm 0.00 in/hr0.0 mm/hr 0.12 in3.0 mm
02:34 PM 37.6°F3.1°C 24.2°F-4.3°C 58% 11.6 mph WSW18.7 kmh WSW 11.6 mph18.7 kmh 30.04 in1017.3 mb 0.00 in0.0 mm 0.00 in/hr0.0 mm/hr 0.12 in3.0 mm
02:48 PM 37.6°F3.1°C 25.0°F-3.9°C 60% Calm Calm 7.2 mph11.6 kmh 30.04 in1017.3 mb 0.00 in0.0 mm 0.00 in/hr0.0 mm/hr 0.12 in3.0 mm
03:04 PM 37.8°F3.2°C 24.3°F-4.3°C 58% 7.2 mph SW11.6 kmh SW 11.6 mph18.7 kmh 30.07 in1018.3 mb 0.00 in0.0 mm 0.00 in/hr0.0 mm/hr 0.12 in3.0 mm
03:18 PM 37.8°F3.2°C 25.1°F-3.8°C 60% Calm Calm -- 30.04 in1017.3 mb 0.00 in0.0 mm 0.00 in/hr0.0 mm/hr 0.12 in3.0 mm
03:34 PM 37.6°F3.1°C 25.0°F-3.9°C 60% Calm Calm 9.8 mph15.8 kmh 30.04 in1017.3 mb 0.00 in0.0 mm 0.00 in/hr0.0 mm/hr 0.12 in3.0 mm
03:48 PM 37.9°F3.3°C 25.3°F-3.7°C 60% Calm Calm -- 30.07 in1018.3 mb 0.00 in0.0 mm 0.00 in/hr0.0 mm/hr 0.12 in3.0 mm
04:04 PM 37.8°F3.2°C 25.1°F-3.8°C 60% Calm Calm -- 30.07 in1018.3 mb 0.00 in0.0 mm 0.00 in/hr0.0 mm/hr 0.12 in3.0 mm
04:18 PM 37.0°F2.8°C 24.5°F-4.2°C 60% Calm Calm -- 30.07 in1018.3 mb 0.00 in0.0 mm 0.00 in/hr0.0 mm/hr 0.12 in3.0 mm
04:34 PM 35.8°F2.1°C 24.1°F-4.4°C 62% Calm Calm -- 30.07 in1018.3 mb 0.00 in0.0 mm 0.00 in/hr0.0 mm/hr 0.12 in3.0 mm
04:47 PM 34.5°F1.4°C 23.2°F-4.9°C 63% Calm Calm -- 30.07 in1018.3 mb 0.00 in0.0 mm 0.00 in/hr0.0 mm/hr 0.12 in3.0 mm
05:04 PM 33.1°F0.6°C 22.2°F-5.4°C 64% Calm Calm -- 30.07 in1018.3 mb 0.00 in0.0 mm 0.00 in/hr0.0 mm/hr 0.12 in3.0 mm
05:18 PM 31.8°F-0.1°C 21.8°F-5.7°C 66% Calm Calm -- 30.07 in1018.3 mb 0.00 in0.0 mm 0.00 in/hr0.0 mm/hr 0.12 in3.0 mm
05:34 PM 30.4°F-0.9°C 20.8°F-6.2°C 67% Calm Calm -- 30.07 in1018.3 mb 0.00 in0.0 mm 0.00 in/hr0.0 mm/hr 0.12 in3.0 mm
05:48 PM 29.5°F-1.4°C 19.9°F-6.7°C 67% Calm Calm -- 30.07 in1018.3 mb 0.00 in0.0 mm 0.00 in/hr0.0 mm/hr 0.12 in3.0 mm
06:04 PM 28.4°F-2.0°C 19.5°F-6.9°C 69% Calm Calm -- 30.07 in1018.3 mb 0.00 in0.0 mm 0.00 in/hr0.0 mm/hr 0.12 in3.0 mm
06:18 PM 27.7°F-2.4°C 18.9°F-7.3°C 69% Calm Calm -- 30.07 in1018.3 mb 0.00 in0.0 mm 0.00 in/hr0.0 mm/hr 0.12 in3.0 mm
06:34 PM 27.1°F-2.7°C 19.0°F-7.2°C 71% Calm Calm -- 30.07 in1018.3 mb 0.00 in0.0 mm 0.00 in/hr0.0 mm/hr 0.12 in3.0 mm
06:48 PM 26.8°F-2.9°C 18.7°F-7.4°C 71% Calm Calm -- 30.07 in1018.3 mb 0.00 in0.0 mm 0.00 in/hr0.0 mm/hr 0.12 in3.0 mm
07:04 PM 26.2°F-3.2°C 18.5°F-7.5°C 72% Calm Calm -- 30.07 in1018.3 mb 0.00 in0.0 mm 0.00 in/hr0.0 mm/hr 0.12 in3.0 mm
07:18 PM 25.9°F-3.4°C 18.4°F-7.6°C 73% Calm Calm -- 30.07 in1018.3 mb 0.00 in0.0 mm 0.00 in/hr0.0 mm/hr 0.12 in3.0 mm
07:34 PM 25.5°F-3.6°C 18.4°F-7.6°C 74% Calm Calm -- 30.07 in1018.3 mb 0.00 in0.0 mm 0.00 in/hr0.0 mm/hr 0.12 in3.0 mm
07:48 PM 25.3°F-3.7°C 18.2°F-7.7°C 74% Calm Calm -- 30.07 in1018.3 mb 0.00 in0.0 mm 0.00 in/hr0.0 mm/hr 0.12 in3.0 mm
08:04 PM 25.2°F-3.8°C 18.4°F-7.6°C 75% Calm Calm -- 30.07 in1018.3 mb 0.00 in0.0 mm 0.00 in/hr0.0 mm/hr 0.12 in3.0 mm
08:18 PM 25.0°F-3.9°C 18.5°F-7.5°C 76% Calm Calm -- 30.07 in1018.3 mb 0.00 in0.0 mm 0.00 in/hr0.0 mm/hr 0.12 in3.0 mm
08:34 PM 24.6°F-4.1°C 18.2°F-7.7°C 76% Calm Calm -- 30.07 in1018.3 mb 0.00 in0.0 mm 0.00 in/hr0.0 mm/hr 0.12 in3.0 mm
08:46 PM 24.4°F-4.2°C 18.0°F-7.8°C 76% Calm Calm -- 30.07 in1018.3 mb 0.00 in0.0 mm 0.00 in/hr0.0 mm/hr 0.12 in3.0 mm
09:04 PM 23.9°F-4.5°C 17.8°F-7.9°C 77% Calm Calm -- 30.07 in1018.3 mb 0.00 in0.0 mm 0.00 in/hr0.0 mm/hr 0.12 in3.0 mm
09:18 PM 23.9°F-4.5°C 18.1°F-7.7°C 78% Calm Calm -- 30.10 in1019.3 mb 0.00 in0.0 mm 0.00 in/hr0.0 mm/hr 0.12 in3.0 mm
09:34 PM 23.4°F-4.8°C 17.5°F-8.1°C 78% Calm Calm -- 30.10 in1019.3 mb 0.00 in0.0 mm 0.00 in/hr0.0 mm/hr 0.12 in3.0 mm
09:48 PM 23.2°F-4.9°C 17.4°F-8.1°C 78% Calm Calm -- 30.10 in1019.3 mb 0.00 in0.0 mm 0.00 in/hr0.0 mm/hr 0.12 in3.0 mm
10:02 PM 23.4°F-4.8°C 17.8°F-7.9°C 79% Calm Calm -- 30.10 in1019.3 mb 0.00 in0.0 mm 0.00 in/hr0.0 mm/hr 0.12 in3.0 mm
10:18 PM 23.7°F-4.6°C 18.2°F-7.7°C 79% Calm Calm -- 30.10 in1019.3 mb 0.00 in0.0 mm 0.00 in/hr0.0 mm/hr 0.12 in3.0 mm
10:34 PM 24.1°F-4.4°C 18.5°F-7.5°C 79% Calm Calm -- 30.10 in1019.3 mb 0.00 in0.0 mm 0.00 in/hr0.0 mm/hr 0.12 in3.0 mm
10:48 PM 24.4°F-4.2°C 19.2°F-7.1°C 80% Calm Calm -- 30.10 in1019.3 mb 0.00 in0.0 mm 0.00 in/hr0.0 mm/hr 0.12 in3.0 mm
11:04 PM 24.6°F-4.1°C 19.3°F-7.1°C 80% Calm Calm -- 30.10 in1019.3 mb 0.00 in0.0 mm 0.00 in/hr0.0 mm/hr 0.12 in3.0 mm
11:18 PM 24.6°F-4.1°C 19.6°F-6.9°C 81% Calm Calm -- 30.10 in1019.3 mb 0.00 in0.0 mm 0.00 in/hr0.0 mm/hr 0.12 in3.0 mm
11:34 PM 24.4°F-4.2°C 19.5°F-6.9°C 81% Calm Calm -- 30.10 in1019.3 mb 0.00 in0.0 mm 0.00 in/hr0.0 mm/hr 0.12 in3.0 mm
11:48 PM 23.9°F-4.5°C 18.9°F-7.3°C 81% Calm Calm -- 30.10 in1019.3 mb 0.00 in0.0 mm 0.00 in/hr0.0 mm/hr 0.12 in3.0 mm